• Join FlightAware (Why Join?)
  • Login
  • US Flag 
Rudolph Flight #1: Arrived! 
10:16AM EST


 

Airport Tracker/Info


-or-


 

Live Flight TrackerFlight Track Log ✈ EGF4432 ✈ 02-May-2013 ✈ KDCA - KBNA

Flight Track Log - Related Links

Times and Time Zones

All times are in EDT time to prevent confusion due to time zone crossing. See the EGF4432 flight status page for this flight to view local times or setup timezone preferences in your user account.

Time Position Orientation Groundspeed Altitude Reporting Facility
EDT Latitude Longitude Course Direction KTS MPH feet Rate Location/Type
04:47PM 38.8833 -77.0667 270° West 194 223 1,800  Level Potomac TRACON
04:48PM 38.9333 -77.1167 322° Northwest 230 265 4,000 2,280 Climbing Potomac TRACON
04:49PM 38.8500 -77.4321 270° West  Level FlightAware Approximate
04:50PM 38.8500 -77.5650 270° West  Level FlightAware Approximate
04:50PM 38.9975 -77.2742 298° West 260 299 8,600  Level Washington Center
04:51PM 38.8500 -77.6980 270° West  Level FlightAware Approximate
04:51PM 38.9878 -77.3756 263° West 260 299 10,700  Level Washington Center
04:52PM 38.8502 -77.8309 270° West  Level FlightAware Approximate
04:52PM 38.9694 -77.4872 258° West 287 330 11,800  Level Washington Center
04:53PM 38.8503 -77.9638 270° West  Level FlightAware Approximate
04:53PM 38.9486 -77.6147 258° West 347 399 12,900  Level Washington Center
04:54PM 38.8502 -78.0968 270° West  Level FlightAware Approximate
04:54PM 38.9272 -77.7636 260° West 383 441 14,000  Level Washington Center
04:55PM 38.9036 -77.9044 258° West 402 463 15,000 960 Climbing Washington Center
04:56PM 38.8822 -78.0422 259° West 402 463 16,000 960 Climbing Washington Center
04:57PM 38.8583 -78.1856 258° West 407 468 17,000 1,020 Climbing Washington Center
04:58PM 38.8508 -78.3319 266° West 412 474 18,100 900 Climbing Washington Center
04:59PM 38.8519 -78.4731 271° West 407 468 18,900 960 Climbing Washington Center
05:00PM 38.8358 -78.6164 262° West 401 461 20,100 1,200 Climbing Washington Center
05:01PM 38.8156 -78.7569 260° West 409 471 21,300 1,140 Climbing Washington Center
05:02PM 38.7969 -78.9025 261° West 409 471 22,500 1,140 Climbing Washington Center
05:03PM 38.7764 -79.0456 260° West 409 471 23,600 1,080 Climbing Washington Center
05:04PM 38.7553 -79.1908 259° West 409 471 24,700 1,260 Climbing Washington Center
05:05PM 38.7339 -79.3417 260° West 423 487 26,100 1,380 Climbing Washington Center
05:06PM 38.7175 -79.4711 261° West 423 487 27,500 1,320 Climbing Washington Center
05:07PM 38.6961 -79.6083 259° West 417 480 28,900 1,380 Climbing Washington Center
05:08PM 38.6750 -79.7456 259° West 405 466 30,300 1,620 Climbing Washington Center
05:09PM 38.6511 -79.8903 258° West 399 459 32,100 1,320 Climbing Washington Center
05:10PM 38.6156 -80.1072 258° West 380 437 34,000 660 Climbing Indianapolis Center
05:11PM 38.5931 -80.2581 259° West 396 456 34,000  Level Indianapolis Center
05:13PM 38.5706 -80.4025 259° West 424 488 34,000  Level Indianapolis Center
05:14PM 38.5444 -80.5706 259° West 423 487 34,000  Level Indianapolis Center
05:15PM 38.5222 -80.7158 259° West 421 484 34,000  Level Indianapolis Center
05:16PM 38.4992 -80.8600 258° West 414 476 34,000  Level Indianapolis Center
05:17PM 38.4753 -81.0067 258° West 418 481 34,000  Level Indianapolis Center
05:18PM 38.4517 -81.1528 258° West 420 483 34,000  Level Indianapolis Center
05:19PM 38.4133 -81.2967 251° West 424 488 34,000  Level Indianapolis Center
05:20PM 38.3783 -81.4411 253° West 423 487 34,000  Level Indianapolis Center
05:21PM 38.3419 -81.5850 252° West 421 484 34,000  Level Indianapolis Center
05:22PM 38.2975 -81.7567 252° West 423 487 34,000  Level Indianapolis Center
05:23PM 38.2606 -81.8986 252° West 421 484 34,000  Level Indianapolis Center
05:24PM 38.2247 -82.0419 252° West 425 489 34,000  Level Indianapolis Center
05:25PM 38.1878 -82.1858 252° West 427 491 34,000  Level Indianapolis Center
05:26PM 38.1506 -82.3283 252° West 425 489 34,000  Level Indianapolis Center
05:27PM 38.1117 -82.4706 251° West 426 490 34,000  Level Indianapolis Center
05:28PM 38.0731 -82.6203 252° West 427 491 34,000  Level Indianapolis Center
05:29PM 38.0286 -82.7856 251° West 427 491 34,000  Level Indianapolis Center
05:30PM 37.9922 -82.9297 252° West 430 495 34,000  Level Indianapolis Center
05:31PM 37.9533 -83.0711 251° West 426 490 34,000  Level Indianapolis Center
05:32PM 37.9136 -83.2136 251° West 429 494 34,000  Level Indianapolis Center
05:33PM 37.8544 -83.3419 240° Southwest 423 487 34,000  Level Indianapolis Center
05:34PM 37.7778 -83.4872 236° Southwest 426 490 34,000  Level Indianapolis Center
05:35PM 37.7122 -83.6122 236° Southwest 426 490 34,000  Level Indianapolis Center
05:36PM 37.6458 -83.7378 236° Southwest 431 496 34,000  Level Indianapolis Center
05:37PM 37.5808 -83.8617 237° Southwest 426 490 34,000  Level Indianapolis Center
05:38PM 37.5153 -83.9867 237° Southwest 425 489 34,000  Level Indianapolis Center
05:39PM 37.4389 -84.1300 236° Southwest 424 488 34,000 -60 Level Indianapolis Center
05:40PM 37.3733 -84.2536 236° Southwest 424 488 33,900 -540 Descending Indianapolis Center
05:41PM 37.3086 -84.3750 236° Southwest 421 484 32,900 -960 Descending Indianapolis Center
05:43PM 37.2419 -84.4978 236° Southwest 425 489 32,000 -480 Descending Indianapolis Center
05:44PM 37.1783 -84.6189 237° Southwest 419 482 32,000  Level Indianapolis Center
05:45PM 37.1022 -84.7567 235° Southwest 412 474 32,000 -420 Level Indianapolis Center
05:46PM 37.0386 -84.8750 236° Southwest 418 481 31,200 -1,020 Descending Indianapolis Center
05:47PM 36.9714 -84.9997 236° Southwest 431 496 29,900 -1,920 Descending Indianapolis Center
05:48PM 36.9028 -85.1258 236° Southwest 439 505 27,300 -2,640 Descending Indianapolis Center
05:49PM 36.8333 -85.2486 235° Southwest 435 501 24,500 -2,580 Descending Indianapolis Center
05:50PM 36.7539 -85.3947 236° Southwest 423 487 22,000 -1,320 Descending Indianapolis Center
05:51PM 36.7289 -85.5108 255° West 388 447 22,000  Level Memphis Center
05:52PM 36.7211 -85.6328 265° West 372 428 22,000 -660 Level Memphis Center
05:53PM 36.7189 -85.7417 269° West 366 421 20,700 -1,680 Descending Memphis Center
05:54PM 36.7150 -85.8611 268° West 356 410 18,700 -2,040 Descending Memphis Center
05:55PM 36.6806 -85.9508 244° Southwest 290 334 16,700 -2,400 Descending Memphis Center
05:56PM 36.5978 -85.9658 188° South 259 298 13,900 -3,000 Descending Memphis Center
05:57PM 36.5167 -85.9703 183° South 279 321 10,800 -1,980 Descending Memphis Center
05:58PM 36.4561 -86.0275 217° Southwest 273 314 10,000 -1,200 Descending Memphis Center
05:59PM 36.4111 -86.1150 237° Southwest 278 320 8,500 -1,500 Descending Memphis Center
06:00PM 36.3725 -86.2022 241° Southwest 283 326 7,100 -1,320 Descending Memphis Center
06:01PM 36.3525 -86.2933 255° West 283 326 5,900 -900 Descending Memphis Center
06:02PM 36.3367 -86.3844 258° West 277 319 5,300 -600 Descending Memphis Center
06:03PM 36.3228 -86.4700 259° West 272 313 4,800 -540 Descending Memphis Center